createdAt,value
2018-11-01T00:01:04.742Z,4.72
2018-11-01T00:03:34.080Z,4.83
2018-11-01T00:06:02.656Z,4.69
2018-11-01T00:08:31.260Z,4.62
2018-11-01T00:11:02.829Z,4.63
2018-11-01T00:13:31.452Z,4.67
2018-11-01T00:16:00.156Z,4.78
2018-11-01T00:18:28.773Z,4.78
2018-11-01T00:20:57.336Z,4.65
2018-11-01T00:23:25.937Z,4.72
2018-11-01T00:25:54.536Z,4.61
2018-11-01T00:28:23.245Z,4.77
2018-11-01T00:30:51.863Z,4.60
2018-11-01T00:33:20.384Z,4.53
2018-11-01T00:35:49.009Z,4.55
2018-11-01T00:38:17.585Z,4.48
2018-11-01T00:40:46.239Z,4.36
2018-11-01T00:43:14.845Z,4.30
2018-11-01T00:45:43.820Z,4.26
2018-11-01T00:48:12.540Z,4.09
2018-11-01T00:50:41.199Z,4.16
2018-11-01T00:53:09.961Z,4.01
2018-11-01T00:55:38.576Z,3.97
2018-11-01T00:58:07.436Z,3.84
2018-11-01T01:00:35.977Z,3.78
2018-11-01T01:03:05.001Z,3.71
2018-11-01T01:05:33.621Z,3.73
2018-11-01T01:08:02.172Z,3.60
2018-11-01T01:10:30.937Z,3.54
2018-11-01T01:12:59.480Z,3.69
2018-11-01T01:15:28.077Z,3.78
2018-11-01T01:17:56.694Z,3.94
2018-11-01T01:20:25.265Z,3.80
2018-11-01T01:22:53.881Z,3.60
2018-11-01T01:25:22.547Z,3.48
2018-11-01T01:27:51.133Z,3.74
2018-11-01T01:30:21.109Z,3.67
2018-11-01T01:32:50.417Z,3.56
2018-11-01T01:35:19.263Z,3.51
2018-11-01T01:37:47.951Z,3.58
2018-11-01T01:40:16.547Z,3.74
2018-11-01T01:42:51.276Z,3.93
2018-11-01T01:45:20.288Z,3.96
2018-11-01T01:47:49.193Z,3.76
2018-11-01T01:50:18.697Z,3.75
2018-11-01T01:52:47.677Z,3.73
2018-11-01T01:55:16.613Z,3.77
2018-11-01T01:57:45.186Z,3.84
2018-11-01T02:00:15.858Z,3.80
2018-11-01T02:02:45.968Z,4.03
2018-11-01T02:05:14.788Z,3.98
2018-11-01T02:07:43.475Z,4.01
2018-11-01T02:10:13.681Z,4.14
2018-11-01T02:12:42.638Z,4.22
2018-11-01T02:15:15.525Z,4.41
2018-11-01T02:17:44.461Z,4.18
2018-11-01T02:20:14.885Z,4.38
2018-11-01T02:22:44.208Z,4.29
2018-11-01T02:25:12.896Z,4.18
2018-11-01T02:27:46.732Z,4.26
2018-11-01T02:30:16.598Z,4.43
2018-11-01T02:32:45.966Z,4.26
2018-11-01T02:35:15.825Z,4.23
2018-11-01T02:37:45.176Z,4.12
2018-11-01T02:40:14.288Z,3.96
2018-11-01T02:42:43.363Z,4.26
2018-11-01T02:45:13.125Z,4.16
2018-11-01T02:47:41.981Z,4.19
2018-11-01T02:50:11.745Z,4.27
2018-11-01T02:52:40.685Z,4.29
2018-11-01T02:55:10.029Z,4.19
2018-11-01T02:57:38.945Z,4.28
2018-11-01T03:00:09.660Z,4.58
2018-11-01T03:02:38.323Z,4.70
2018-11-01T03:05:07.604Z,4.75
2018-11-01T03:07:36.184Z,4.64
2018-11-01T03:10:05.775Z,4.57
2018-11-01T03:12:34.447Z,4.56
2018-11-01T03:15:02.997Z,4.55
2018-11-01T03:17:31.564Z,4.40
2018-11-01T03:20:00.304Z,4.45
2018-11-01T03:22:28.905Z,4.32
2018-11-01T03:24:57.632Z,4.18
2018-11-01T03:27:26.169Z,4.23
2018-11-01T03:29:54.824Z,4.32
2018-11-01T03:32:23.474Z,4.31
2018-11-01T03:34:52.015Z,4.23
2018-11-01T03:37:20.516Z,4.19
2018-11-01T03:39:49.125Z,4.28
2018-11-01T03:42:17.785Z,4.36
2018-11-01T03:44:46.441Z,4.19
2018-11-01T03:47:15.074Z,4.04
2018-11-01T03:49:43.849Z,3.70
2018-11-01T03:52:12.488Z,3.78
2018-11-01T03:54:41.193Z,3.56
2018-11-01T03:57:10.152Z,3.52
2018-11-01T03:59:38.762Z,3.37
2018-11-01T04:02:07.469Z,3.22
2018-11-01T04:04:36.477Z,3.16
2018-11-01T04:07:05.039Z,3.16
2018-11-01T04:09:33.625Z,3.10
2018-11-01T04:12:02.287Z,3.16
2018-11-01T04:14:30.941Z,3.04
2018-11-01T04:16:59.631Z,2.93
2018-11-01T04:19:28.136Z,3.16
2018-11-01T04:22:04.650Z,3.14
2018-11-01T04:24:34.063Z,2.99
2018-11-01T04:27:03.184Z,3.12
2018-11-01T04:29:32.511Z,3.16
2018-11-01T04:32:01.216Z,2.85
2018-11-01T04:34:29.718Z,2.78
2018-11-01T04:36:58.365Z,2.83
2018-11-01T04:39:27.284Z,2.90
2018-11-01T04:41:56.185Z,2.72
2018-11-01T04:44:24.930Z,2.78
2018-11-01T04:46:53.652Z,2.87
2018-11-01T04:49:22.192Z,3.22
2018-11-01T04:51:50.892Z,2.93
2018-11-01T04:54:19.693Z,2.97
2018-11-01T04:56:48.372Z,3.06
2018-11-01T04:59:16.996Z,3.01
2018-11-01T05:01:45.632Z,2.95
2018-11-01T05:04:14.176Z,3.06
2018-11-01T05:06:49.524Z,3.10
2018-11-01T05:09:18.064Z,3.13
2018-11-01T05:11:46.904Z,3.15
2018-11-01T05:14:15.469Z,3.10
2018-11-01T05:16:44.094Z,2.98
2018-11-01T05:19:12.661Z,2.97
2018-11-01T05:21:41.254Z,3.01
2018-11-01T05:24:09.833Z,2.98
2018-11-01T05:26:38.416Z,2.90
2018-11-01T05:29:06.985Z,2.95
2018-11-01T05:31:35.633Z,2.92
2018-11-01T05:34:04.493Z,2.94
2018-11-01T05:36:33.097Z,3.13
2018-11-01T05:39:01.753Z,3.09
2018-11-01T05:41:30.325Z,3.01
2018-11-01T05:43:58.986Z,3.10
2018-11-01T05:46:27.614Z,3.33
2018-11-01T05:48:56.355Z,3.43
2018-11-01T05:51:24.920Z,3.38
2018-11-01T05:53:53.637Z,3.41
2018-11-01T05:56:22.224Z,3.34
2018-11-01T05:58:50.745Z,3.20
2018-11-01T06:01:43.672Z,3.23
2018-11-01T06:04:12.274Z,3.11
2018-11-01T06:06:40.933Z,3.32
2018-11-01T06:09:10.468Z,3.38
2018-11-01T06:11:39.048Z,3.35
2018-11-01T06:14:07.714Z,3.35
2018-11-01T06:16:36.334Z,3.37
2018-11-01T06:19:05.368Z,3.46
2018-11-01T06:21:33.956Z,3.50
2018-11-01T06:24:02.518Z,3.64
2018-11-01T06:26:31.231Z,3.57
2018-11-01T06:28:59.761Z,3.64
2018-11-01T06:31:28.537Z,3.69
2018-11-01T06:33:57.176Z,3.60
2018-11-01T06:36:25.788Z,3.51
2018-11-01T06:38:54.400Z,3.57
2018-11-01T06:41:23.057Z,3.80
2018-11-01T06:43:51.865Z,3.87
2018-11-01T06:46:20.468Z,3.96
2018-11-01T06:48:49.152Z,3.97
2018-11-01T06:51:17.804Z,3.90
2018-11-01T06:53:46.425Z,3.91
2018-11-01T06:56:15.280Z,4.00
2018-11-01T06:58:44.033Z,3.95
2018-11-01T07:01:12.604Z,4.04
2018-11-01T07:03:41.319Z,3.97
2018-11-01T07:06:09.855Z,3.89
2018-11-01T07:08:38.590Z,4.00
2018-11-01T07:11:07.292Z,4.02
2018-11-01T07:13:35.927Z,4.12
2018-11-01T07:16:04.885Z,4.37
2018-11-01T07:18:33.516Z,4.43
2018-11-01T07:21:02.173Z,4.38
2018-11-01T07:23:30.708Z,4.37
2018-11-01T07:25:59.630Z,4.58
2018-11-01T07:28:28.109Z,4.46
2018-11-01T07:30:56.677Z,4.55
2018-11-01T07:33:25.388Z,4.80
2018-11-01T07:35:54.016Z,4.65
2018-11-01T07:38:22.614Z,4.61
2018-11-01T07:40:51.214Z,4.53
2018-11-01T07:43:19.748Z,4.67
2018-11-01T07:45:48.341Z,4.83
2018-11-01T07:48:16.877Z,4.65
2018-11-01T07:50:45.493Z,4.63
2018-11-01T07:53:14.049Z,4.73
2018-11-01T07:55:42.596Z,4.64
2018-11-01T07:58:11.328Z,4.53
2018-11-01T08:00:39.888Z,4.55
2018-11-01T08:03:08.704Z,4.64
2018-11-01T08:05:37.473Z,4.73
2018-11-01T08:08:05.960Z,4.88
2018-11-01T08:10:34.576Z,4.83
2018-11-01T08:13:03.149Z,4.90
2018-11-01T08:15:31.800Z,4.98
2018-11-01T08:18:00.444Z,5.23
2018-11-01T08:20:29.253Z,5.37
2018-11-01T08:22:57.777Z,5.40
2018-11-01T08:25:26.317Z,5.52
2018-11-01T08:27:54.968Z,5.58
2018-11-01T08:30:23.528Z,5.62
2018-11-01T08:32:52.137Z,5.69
2018-11-01T08:35:20.755Z,5.66
2018-11-01T08:37:49.385Z,5.70
2018-11-01T08:40:18.024Z,5.69
2018-11-01T08:42:46.644Z,5.64
2018-11-01T08:45:15.984Z,5.64
2018-11-01T08:47:44.503Z,5.65
2018-11-01T08:50:14.360Z,5.81
2018-11-01T08:52:43.630Z,5.87
2018-11-01T08:55:12.712Z,5.78
2018-11-01T08:57:42.735Z,5.82
2018-11-01T09:00:12.245Z,5.87
2018-11-01T09:02:41.677Z,5.88
2018-11-01T09:05:11.213Z,5.86
2018-11-01T09:07:40.236Z,5.80
2018-11-01T09:10:12.305Z,5.87
2018-11-01T09:12:41.123Z,6.03
2018-11-01T09:15:11.365Z,6.07
2018-11-01T09:17:40.367Z,5.93
2018-11-01T09:20:09.607Z,6.02
2018-11-01T09:22:38.663Z,6.17
2018-11-01T09:25:07.501Z,6.51
2018-11-01T09:27:36.089Z,6.59
2018-11-01T09:30:06.053Z,6.59
2018-11-01T09:32:34.664Z,6.59
2018-11-01T09:35:03.341Z,6.67
2018-11-01T09:37:32.057Z,6.78
2018-11-01T09:40:00.845Z,6.86
2018-11-01T09:42:29.524Z,6.99
2018-11-01T09:44:58.219Z,7.10
2018-11-01T09:47:27.594Z,7.31
2018-11-01T09:49:55.906Z,7.34
2018-11-01T09:52:24.659Z,7.39
2018-11-01T09:54:53.356Z,7.48
2018-11-01T09:57:21.927Z,7.47
2018-11-01T09:59:50.873Z,7.73
2018-11-01T10:02:19.624Z,7.63
2018-11-01T10:04:48.149Z,7.54
2018-11-01T10:07:16.760Z,7.69
2018-11-01T10:09:45.405Z,7.46
2018-11-01T10:12:14.650Z,7.36
2018-11-01T10:14:43.260Z,7.36
2018-11-01T10:17:12.294Z,7.31
2018-11-01T10:19:40.518Z,7.56
2018-11-01T10:22:09.288Z,7.66
2018-11-01T10:24:41.281Z,7.79
2018-11-01T10:27:19.513Z,7.87
2018-11-01T10:29:38.814Z,7.82
2018-11-01T10:32:09.189Z,8.01
2018-11-01T10:34:37.743Z,7.97
2018-11-01T10:37:06.403Z,8.05
2018-11-01T10:39:35.093Z,8.53
2018-11-01T10:42:04.205Z,8.44
2018-11-01T10:44:32.982Z,8.51
2018-11-01T10:47:02.720Z,8.42
2018-11-01T10:49:31.266Z,8.35
2018-11-01T10:51:59.828Z,8.40
2018-11-01T10:54:28.523Z,8.40
2018-11-01T10:56:57.328Z,8.31
2018-11-01T10:59:25.969Z,8.84
2018-11-01T11:02:00.327Z,8.75
2018-11-01T11:04:29.041Z,8.69
2018-11-01T11:06:58.657Z,8.66
2018-11-01T11:09:27.488Z,8.84
2018-11-01T11:11:56.149Z,8.92
2018-11-01T11:14:24.761Z,8.97
2018-11-01T11:16:53.285Z,8.90
2018-11-01T11:19:23.177Z,8.83
2018-11-01T11:21:51.884Z,8.80
2018-11-01T11:24:20.485Z,9.14
2018-11-01T11:26:49.181Z,9.05
2018-11-01T11:29:18.044Z,9.17
2018-11-01T11:31:46.593Z,9.45
2018-11-01T11:34:15.117Z,9.54
2018-11-01T11:36:43.880Z,9.41
2018-11-01T11:39:13.518Z,9.52
2018-11-01T11:41:42.725Z,9.42
2018-11-01T11:44:11.613Z,9.23
2018-11-01T11:46:40.596Z,9.34
2018-11-01T11:49:09.389Z,9.26
2018-11-01T11:51:38.357Z,9.18
2018-11-01T11:54:07.622Z,9.29
2018-11-01T11:56:36.188Z,9.23
2018-11-01T11:59:05.182Z,9.11
2018-11-01T12:01:33.818Z,9.04
2018-11-01T12:04:03.122Z,9.01
2018-11-01T12:06:31.857Z,9.17
2018-11-01T12:09:00.484Z,9.14
2018-11-01T12:11:29.126Z,9.01
2018-11-01T12:13:58.566Z,8.93
2018-11-01T12:16:27.199Z,8.97
2018-11-01T12:18:55.960Z,8.93
2018-11-01T12:21:24.572Z,8.89
2018-11-01T12:23:53.211Z,8.86
2018-11-01T12:26:21.788Z,8.87
2018-11-01T12:28:50.551Z,9.02
2018-11-01T12:31:19.344Z,8.91
2018-11-01T12:33:48.025Z,8.93
2018-11-01T12:36:16.829Z,9.10
2018-11-01T12:38:45.502Z,9.12
2018-11-01T12:41:14.344Z,9.16
2018-11-01T12:43:43.176Z,9.14
2018-11-01T12:46:11.875Z,9.27
2018-11-01T12:48:40.517Z,9.22
2018-11-01T12:51:09.213Z,9.17
2018-11-01T12:53:37.925Z,9.23
2018-11-01T12:56:06.887Z,9.67
2018-11-01T12:58:35.505Z,9.39
2018-11-01T13:01:04.186Z,9.47
2018-11-01T13:03:32.792Z,9.54
2018-11-01T13:06:01.530Z,9.47
2018-11-01T13:08:30.125Z,9.40
2018-11-01T13:10:58.941Z,9.67
2018-11-01T13:13:27.875Z,9.80
2018-11-01T13:15:56.474Z,9.42
2018-11-01T13:18:25.061Z,9.56
2018-11-01T13:20:53.737Z,9.49
2018-11-01T13:23:22.522Z,9.46
2018-11-01T13:25:51.202Z,9.59
2018-11-01T13:28:19.721Z,9.60
2018-11-01T13:30:48.430Z,9.68
2018-11-01T13:33:17.343Z,9.61
2018-11-01T13:35:46.861Z,9.65
2018-11-01T13:38:15.681Z,9.63
2018-11-01T13:40:44.904Z,9.69
2018-11-01T13:43:14.059Z,9.75
2018-11-01T13:45:43.800Z,9.79
2018-11-01T13:48:12.735Z,9.82
2018-11-01T13:50:41.622Z,9.80
2018-11-01T13:53:10.276Z,9.80
2018-11-01T13:55:39.032Z,10.21
2018-11-01T13:58:07.768Z,10.05
2018-11-01T14:00:36.688Z,9.84
2018-11-01T14:03:06.629Z,9.89
2018-11-01T14:05:36.214Z,10.02
2018-11-01T14:08:05.245Z,10.10
2018-11-01T14:10:33.965Z,10.18
2018-11-01T14:13:02.665Z,10.06
2018-11-01T14:15:31.584Z,9.90
2018-11-01T14:18:00.557Z,9.93
2018-11-01T14:20:29.660Z,9.94
2018-11-01T14:22:58.719Z,10.04
2018-11-01T14:25:27.619Z,10.36
2018-11-01T14:27:57.208Z,10.27
2018-11-01T14:30:25.967Z,9.98
2018-11-01T14:32:54.781Z,9.86
2018-11-01T14:35:23.554Z,9.91
2018-11-01T14:37:52.925Z,10.14
2018-11-01T14:40:21.712Z,10.19
2018-11-01T14:42:50.872Z,10.07
2018-11-01T14:45:19.567Z,10.24
2018-11-01T14:47:50.134Z,10.52
2018-11-01T14:50:18.936Z,10.52
2018-11-01T14:52:48.384Z,10.48
2018-11-01T14:55:18.969Z,10.48
2018-11-01T14:57:47.700Z,10.47
2018-11-01T15:00:15.605Z,10.44
2018-11-01T15:02:44.563Z,10.35
2018-11-01T15:05:13.689Z,10.30
2018-11-01T15:07:42.546Z,10.24
2018-11-01T15:10:14.199Z,10.08
2018-11-01T15:12:43.600Z,10.11
2018-11-01T15:15:12.874Z,10.16
2018-11-01T15:17:43.182Z,10.28
2018-11-01T15:20:12.440Z,10.17
2018-11-01T15:22:41.062Z,10.21
2018-11-01T15:25:10.990Z,10.28
2018-11-01T15:27:39.604Z,10.12
2018-11-01T15:30:10.695Z,10.09
2018-11-01T15:32:39.252Z,10.15
2018-11-01T15:35:08.238Z,10.10
2018-11-01T15:37:37.003Z,9.98
2018-11-01T15:40:07.863Z,9.89
2018-11-01T15:42:36.461Z,9.70
2018-11-01T15:45:05.777Z,9.65
2018-11-01T15:47:34.409Z,9.59
2018-11-01T15:50:03.052Z,9.59
2018-11-01T15:52:31.653Z,9.46
2018-11-01T15:55:00.303Z,9.44
2018-11-01T15:57:28.945Z,9.27
2018-11-01T15:59:57.677Z,9.21
2018-11-01T16:02:26.525Z,9.20
2018-11-01T16:04:55.038Z,9.07
2018-11-01T16:07:23.652Z,9.14
2018-11-01T16:09:52.433Z,9.03
2018-11-01T16:12:20.965Z,8.94
2018-11-01T16:14:49.541Z,8.93
2018-11-01T16:17:18.284Z,8.70
2018-11-01T16:19:47.007Z,8.59
2018-11-01T16:22:15.604Z,8.45
2018-11-01T16:24:44.278Z,8.47
2018-11-01T16:27:12.948Z,8.52
2018-11-01T16:29:41.652Z,8.41
2018-11-01T16:32:10.309Z,8.39
2018-11-01T16:34:38.960Z,8.30
2018-11-01T16:37:09.813Z,8.44
2018-11-01T16:39:38.493Z,8.60
2018-11-01T16:42:07.227Z,8.62
2018-11-01T16:44:35.893Z,8.14
2018-11-01T16:47:04.516Z,8.17
2018-11-01T16:49:34.056Z,8.01
2018-11-01T16:52:02.700Z,8.13
2018-11-01T16:54:33.572Z,8.23
2018-11-01T16:57:04.206Z,8.17
2018-11-01T16:59:32.921Z,7.98
2018-11-01T17:02:01.589Z,7.80
2018-11-01T17:04:30.602Z,7.77
2018-11-01T17:06:59.280Z,7.71
2018-11-01T17:09:32.763Z,7.65
2018-11-01T17:12:01.964Z,7.71
2018-11-01T17:14:30.606Z,7.72
2018-11-01T17:16:59.505Z,7.54
2018-11-01T17:19:28.541Z,7.40
2018-11-01T17:21:57.113Z,7.23
2018-11-01T17:24:25.945Z,7.21
2018-11-01T17:26:54.795Z,7.11
2018-11-01T17:29:23.425Z,7.06
2018-11-01T17:31:52.128Z,6.98
2018-11-01T17:34:20.812Z,6.99
2018-11-01T17:36:49.479Z,6.76
2018-11-01T17:39:18.156Z,6.77
2018-11-01T17:41:46.819Z,6.77
2018-11-01T17:44:15.446Z,6.61
2018-11-01T17:46:44.160Z,6.38
2018-11-01T17:49:12.948Z,6.31
2018-11-01T17:51:41.508Z,6.36
2018-11-01T17:54:17.466Z,6.16
2018-11-01T17:56:46.580Z,6.30
2018-11-01T17:59:15.339Z,6.35
2018-11-01T18:01:44.017Z,6.21
2018-11-01T18:04:13.102Z,6.01
2018-11-01T18:06:41.714Z,5.89
2018-11-01T18:09:13.153Z,5.79
2018-11-01T18:11:42.311Z,5.58
2018-11-01T18:14:10.936Z,5.47
2018-11-01T18:16:40.409Z,5.51
2018-11-01T18:19:09.046Z,5.55
2018-11-01T18:21:37.736Z,5.26
2018-11-01T18:24:07.426Z,5.44
2018-11-01T18:26:35.970Z,5.27
2018-11-01T18:29:04.678Z,5.27
2018-11-01T18:31:33.183Z,5.33
2018-11-01T18:34:01.833Z,5.09
2018-11-01T18:36:30.594Z,5.13
2018-11-01T18:38:59.573Z,5.15
2018-11-01T18:41:28.190Z,5.29
2018-11-01T18:43:57.000Z,5.24
2018-11-01T18:46:25.756Z,5.27
2018-11-01T18:48:54.397Z,5.41
2018-11-01T18:51:23.125Z,5.39
2018-11-01T18:53:52.021Z,5.51
2018-11-01T18:56:21.276Z,5.70
2018-11-01T18:58:49.864Z,5.63
2018-11-01T19:01:18.539Z,5.64
2018-11-01T19:03:47.069Z,5.65
2018-11-01T19:06:15.856Z,5.63
2018-11-01T19:08:44.767Z,5.60
2018-11-01T19:11:13.389Z,5.67
2018-11-01T19:13:42.129Z,5.76
2018-11-01T19:16:10.807Z,5.89
2018-11-01T19:18:40.265Z,5.87
2018-11-01T19:21:11.655Z,5.80
2018-11-01T19:23:40.522Z,6.09
2018-11-01T19:26:10.606Z,6.01
2018-11-01T19:28:39.306Z,6.09
2018-11-01T19:31:07.897Z,6.19
2018-11-01T19:33:36.569Z,6.15
2018-11-01T19:36:05.369Z,6.26
2018-11-01T19:38:33.997Z,6.31
2018-11-01T19:41:02.556Z,6.22
2018-11-01T19:43:31.275Z,6.24
2018-11-01T19:45:59.889Z,6.21
2018-11-01T19:48:28.520Z,6.24
2018-11-01T19:50:57.150Z,6.26
2018-11-01T19:53:25.720Z,6.60
2018-11-01T19:55:54.405Z,6.28
2018-11-01T19:58:23.078Z,6.23
2018-11-01T20:00:51.801Z,6.24
2018-11-01T20:03:20.588Z,6.32
2018-11-01T20:05:49.241Z,6.17
2018-11-01T20:08:18.031Z,6.08
2018-11-01T20:10:46.561Z,6.05
2018-11-01T20:13:15.276Z,6.06
2018-11-01T20:15:43.964Z,6.22
2018-11-01T20:18:12.524Z,6.28
2018-11-01T20:20:41.077Z,6.15
2018-11-01T20:23:09.669Z,6.14
2018-11-01T20:25:38.427Z,6.22
2018-11-01T20:28:07.423Z,6.21
2018-11-01T20:30:36.004Z,6.33
2018-11-01T20:33:04.903Z,6.37
2018-11-01T20:35:33.500Z,6.40
2018-11-01T20:38:02.408Z,6.42
2018-11-01T20:40:31.356Z,6.46
2018-11-01T20:43:00.006Z,6.46
2018-11-01T20:45:28.789Z,6.39
2018-11-01T20:47:57.849Z,6.56
2018-11-01T20:50:26.889Z,6.56
2018-11-01T20:52:55.576Z,6.57
2018-11-01T20:55:24.125Z,6.33
2018-11-01T20:57:52.938Z,6.39
2018-11-01T21:00:21.361Z,6.48
2018-11-01T21:02:50.216Z,6.58
2018-11-01T21:05:18.796Z,6.49
2018-11-01T21:07:47.587Z,6.43
2018-11-01T21:10:16.674Z,6.50
2018-11-01T21:12:45.311Z,6.60
2018-11-01T21:15:15.051Z,6.60
2018-11-01T21:17:43.960Z,6.54
2018-11-01T21:20:12.713Z,6.68
2018-11-01T21:22:41.650Z,6.65
2018-11-01T21:25:11.689Z,6.70
2018-11-01T21:27:40.565Z,6.71
2018-11-01T21:30:09.545Z,6.75
2018-11-01T21:32:38.180Z,6.81
2018-11-01T21:35:07.485Z,6.76
2018-11-01T21:37:36.485Z,6.62
2018-11-01T21:40:07.093Z,6.64
2018-11-01T21:42:35.662Z,6.69
2018-11-01T21:45:04.740Z,6.69
2018-11-01T21:47:33.315Z,6.65
2018-11-01T21:50:02.128Z,6.68
2018-11-01T21:52:30.678Z,6.69
2018-11-01T21:54:59.320Z,6.71
2018-11-01T21:57:28.063Z,6.66
2018-11-01T21:59:56.992Z,6.63
2018-11-01T22:02:25.625Z,6.38
2018-11-01T22:04:54.857Z,6.27
2018-11-01T22:07:23.516Z,6.35
2018-11-01T22:09:52.311Z,6.41
2018-11-01T22:12:21.076Z,6.48
2018-11-01T22:14:49.699Z,6.48
2018-11-01T22:17:18.501Z,6.58
2018-11-01T22:19:47.236Z,6.65
2018-11-01T22:22:15.985Z,6.66
2018-11-01T22:24:44.780Z,6.73
2018-11-01T22:27:13.501Z,6.68
2018-11-01T22:29:42.109Z,6.87
2018-11-01T22:32:10.680Z,6.84
2018-11-01T22:34:39.268Z,7.06
2018-11-01T22:37:07.865Z,6.93
2018-11-01T22:39:36.533Z,6.62
2018-11-01T22:42:05.955Z,6.66
2018-11-01T22:44:34.756Z,6.54
2018-11-01T22:47:03.388Z,6.30
2018-11-01T22:49:31.981Z,6.21
2018-11-01T22:52:00.725Z,6.00
2018-11-01T22:54:29.681Z,5.98
2018-11-01T22:56:58.287Z,6.00
2018-11-01T22:59:26.880Z,6.10
2018-11-01T23:01:55.505Z,6.17
2018-11-01T23:04:24.487Z,5.93
2018-11-01T23:06:53.110Z,5.91
2018-11-01T23:09:21.689Z,5.92
2018-11-01T23:11:50.297Z,5.84
2018-11-01T23:14:19.097Z,5.80
2018-11-01T23:16:48.042Z,5.51
2018-11-01T23:19:16.676Z,5.58
2018-11-01T23:21:45.238Z,5.49
2018-11-01T23:24:14.109Z,5.68
2018-11-01T23:26:42.789Z,5.81
2018-11-01T23:29:11.557Z,5.86
2018-11-01T23:31:40.188Z,5.92
2018-11-01T23:34:08.892Z,6.16
2018-11-01T23:36:42.851Z,6.13
2018-11-01T23:39:16.650Z,6.11
2018-11-01T23:41:50.589Z,6.23
2018-11-01T23:44:24.532Z,6.35
2018-11-01T23:46:58.310Z,6.44
2018-11-01T23:50:03.637Z,6.35
2018-11-01T23:52:33.221Z,6.36
2018-11-01T23:55:01.859Z,6.46
2018-11-01T23:57:30.490Z,6.97
2018-11-01T23:59:59.164Z,7.02
